Anchorage/Elmendorf AFB, Alaska
Current Conditions -  °F | °C
As of 3:48 AM on Monday 20 Oct 2014 (Local Time) from PAED Reporting Station
Light Snow Light Snow  
Wind Chill:   Ceiling: 600
Heat Index:   Visibility: 2.5mi
Dew Point:   Wind: 2mph
Humidity: 100%   Direction: 240°WSW
Pressure: 28.97"   Gusts: NA
Location:  61.25°N, 149.79°W
Report Text: PAED 201148Z 24002KT 2 1/2SM -SN BR OVC006 00/00 A2897 RMK AO2A VIS 2 1/2V4 CIG 002 RWY24
Loading
Personal Weather Stations






























Interactive Weather Map
Tropical Storm Tracking
New forecast layout! Learn more

10-Day Weather Forecast

Advertisements
Track Severe Weather on mobile